sensor_id;sensor_type;location;lat;lon;timestamp;P1;durP1;ratioP1;P2;durP2;ratioP2
73113;SDS011;61301;51.956;5.876;2022-11-15T00:01:28;32.55;;;18.33;;
73113;SDS011;61301;51.956;5.876;2022-11-15T00:04:12;32.35;;;19.50;;
73113;SDS011;61301;51.956;5.876;2022-11-15T00:06:57;31.73;;;17.52;;
73113;SDS011;61301;51.956;5.876;2022-11-15T00:09:41;27.77;;;15.80;;
73113;SDS011;61301;51.956;5.876;2022-11-15T00:12:27;30.95;;;18.30;;
73113;SDS011;61301;51.956;5.876;2022-11-15T00:15:12;33.00;;;17.80;;
73113;SDS011;61301;51.956;5.876;2022-11-15T00:17:56;35.38;;;18.88;;
73113;SDS011;61301;51.956;5.876;2022-11-15T00:20:41;30.92;;;16.58;;
73113;SDS011;61301;51.956;5.876;2022-11-15T00:23:25;33.35;;;17.67;;
73113;SDS011;61301;51.956;5.876;2022-11-15T00:26:11;26.02;;;14.57;;
73113;SDS011;61301;51.956;5.876;2022-11-15T00:28:56;22.10;;;12.05;;
73113;SDS011;61301;51.956;5.876;2022-11-15T00:31:41;34.88;;;18.38;;
73113;SDS011;61301;51.956;5.876;2022-11-15T00:34:25;27.95;;;14.43;;
73113;SDS011;61301;51.956;5.876;2022-11-15T00:37:09;25.40;;;15.80;;
73113;SDS011;61301;51.956;5.876;2022-11-15T00:39:54;28.65;;;16.38;;
73113;SDS011;61301;51.956;5.876;2022-11-15T00:42:38;20.52;;;11.57;;
73113;SDS011;61301;51.956;5.876;2022-11-15T00:45:23;24.08;;;13.75;;
73113;SDS011;61301;51.956;5.876;2022-11-15T00:48:09;26.48;;;16.02;;
73113;SDS011;61301;51.956;5.876;2022-11-15T00:50:53;20.02;;;12.35;;
73113;SDS011;61301;51.956;5.876;2022-11-15T00:53:38;18.30;;;12.32;;
73113;SDS011;61301;51.956;5.876;2022-11-15T00:56:22;22.73;;;14.13;;
73113;SDS011;61301;51.956;5.876;2022-11-15T00:59:06;20.48;;;12.85;;
73113;SDS011;61301;51.956;5.876;2022-11-15T01:01:51;23.00;;;14.80;;
73113;SDS011;61301;51.956;5.876;2022-11-15T01:04:35;24.58;;;16.02;;
73113;SDS011;61301;51.956;5.876;2022-11-15T01:07:20;25.98;;;17.02;;
73113;SDS011;61301;51.956;5.876;2022-11-15T01:10:04;24.30;;;14.27;;
73113;SDS011;61301;51.956;5.876;2022-11-15T01:12:49;26.98;;;15.55;;
73113;SDS011;61301;51.956;5.876;2022-11-15T01:15:34;25.05;;;15.20;;
73113;SDS011;61301;51.956;5.876;2022-11-15T01:18:18;28.80;;;17.80;;
73113;SDS011;61301;51.956;5.876;2022-11-15T01:21:07;20.65;;;15.02;;
73113;SDS011;61301;51.956;5.876;2022-11-15T01:23:56;23.10;;;15.85;;
73113;SDS011;61301;51.956;5.876;2022-11-15T01:26:41;17.80;;;12.13;;
73113;SDS011;61301;51.956;5.876;2022-11-15T01:29:25;15.55;;;10.45;;
73113;SDS011;61301;51.956;5.876;2022-11-15T01:32:10;18.95;;;12.30;;
73113;SDS011;61301;51.956;5.876;2022-11-15T01:34:55;19.40;;;12.30;;
73113;SDS011;61301;51.956;5.876;2022-11-15T01:37:39;15.55;;;12.05;;
73113;SDS011;61301;51.956;5.876;2022-11-15T01:40:23;14.07;;;9.20;;
73113;SDS011;61301;51.956;5.876;2022-11-15T01:43:26;19.25;;;12.88;;
73113;SDS011;61301;51.956;5.876;2022-11-15T01:46:22;16.73;;;11.68;;
73113;SDS011;61301;51.956;5.876;2022-11-15T01:52:04;18.67;;;12.23;;
73113;SDS011;61301;51.956;5.876;2022-11-15T01:55:02;14.25;;;10.10;;
73113;SDS011;61301;51.956;5.876;2022-11-15T01:57:55;15.38;;;12.75;;
73113;SDS011;61301;51.956;5.876;2022-11-15T02:00:44;21.42;;;14.77;;
73113;SDS011;61301;51.956;5.876;2022-11-15T02:03:31;16.27;;;12.38;;
73113;SDS011;61301;51.956;5.876;2022-11-15T02:06:21;14.85;;;11.82;;
73113;SDS011;61301;51.956;5.876;2022-11-15T02:09:06;13.77;;;9.77;;
73113;SDS011;61301;51.956;5.876;2022-11-15T02:11:51;10.77;;;7.53;;
73113;SDS011;61301;51.956;5.876;2022-11-15T02:14:38;6.72;;;4.50;;
73113;SDS011;61301;51.956;5.876;2022-11-15T02:20:52;3.53;;;3.05;;
73113;SDS011;61301;51.956;5.876;2022-11-15T02:26:51;8.40;;;7.18;;
73113;SDS011;61301;51.956;5.876;2022-11-15T02:30:00;16.05;;;11.70;;
73113;SDS011;61301;51.956;5.876;2022-11-15T02:36:06;9.32;;;7.50;;
73113;SDS011;61301;51.956;5.876;2022-11-15T02:42:14;15.95;;;13.10;;
73113;SDS011;61301;51.956;5.876;2022-11-15T02:45:30;16.83;;;12.18;;
73113;SDS011;61301;51.956;5.876;2022-11-15T02:48:18;14.52;;;11.98;;
73113;SDS011;61301;51.956;5.876;2022-11-15T02:51:05;15.70;;;12.15;;
73113;SDS011;61301;51.956;5.876;2022-11-15T02:53:50;21.33;;;14.95;;
73113;SDS011;61301;51.956;5.876;2022-11-15T02:56:34;15.15;;;12.45;;
73113;SDS011;61301;51.956;5.876;2022-11-15T03:02:07;18.52;;;13.85;;
73113;SDS011;61301;51.956;5.876;2022-11-15T03:11:16;18.70;;;13.77;;
73113;SDS011;61301;51.956;5.876;2022-11-15T03:17:30;17.35;;;11.40;;
73113;SDS011;61301;51.956;5.876;2022-11-15T03:20:30;16.73;;;12.27;;
73113;SDS011;61301;51.956;5.876;2022-11-15T03:23:15;16.38;;;13.38;;
73113;SDS011;61301;51.956;5.876;2022-11-15T03:26:01;20.85;;;14.02;;
73113;SDS011;61301;51.956;5.876;2022-11-15T03:29:03;17.45;;;12.90;;
73113;SDS011;61301;51.956;5.876;2022-11-15T03:32:06;16.73;;;13.10;;
73113;SDS011;61301;51.956;5.876;2022-11-15T03:35:05;19.15;;;13.23;;
73113;SDS011;61301;51.956;5.876;2022-11-15T03:41:04;18.10;;;12.57;;
73113;SDS011;61301;51.956;5.876;2022-11-15T03:50:00;15.30;;;11.80;;
73113;SDS011;61301;51.956;5.876;2022-11-15T03:52:48;15.80;;;10.90;;
73113;SDS011;61301;51.956;5.876;2022-11-15T03:55:34;16.75;;;12.60;;
73113;SDS011;61301;51.956;5.876;2022-11-15T03:58:19;17.73;;;12.85;;
73113;SDS011;61301;51.956;5.876;2022-11-15T04:01:03;17.58;;;14.10;;
73113;SDS011;61301;51.956;5.876;2022-11-15T04:03:47;19.17;;;14.95;;
73113;SDS011;61301;51.956;5.876;2022-11-15T04:06:32;16.48;;;13.18;;
73113;SDS011;61301;51.956;5.876;2022-11-15T04:09:16;18.65;;;13.15;;
73113;SDS011;61301;51.956;5.876;2022-11-15T04:12:01;15.82;;;12.35;;
73113;SDS011;61301;51.956;5.876;2022-11-15T04:14:45;18.60;;;13.63;;
73113;SDS011;61301;51.956;5.876;2022-11-15T04:17:51;17.27;;;12.60;;
73113;SDS011;61301;51.956;5.876;2022-11-15T04:20:37;16.40;;;11.63;;
73113;SDS011;61301;51.956;5.876;2022-11-15T04:23:40;20.30;;;13.90;;
73113;SDS011;61301;51.956;5.876;2022-11-15T04:26:43;20.73;;;14.85;;
73113;SDS011;61301;51.956;5.876;2022-11-15T04:29:28;16.83;;;12.52;;
73113;SDS011;61301;51.956;5.876;2022-11-15T04:32:18;16.70;;;12.38;;
73113;SDS011;61301;51.956;5.876;2022-11-15T04:35:03;14.20;;;11.65;;
73113;SDS011;61301;51.956;5.876;2022-11-15T04:37:48;18.23;;;12.25;;
73113;SDS011;61301;51.956;5.876;2022-11-15T04:40:32;15.27;;;12.18;;
73113;SDS011;61301;51.956;5.876;2022-11-15T04:43:17;18.38;;;13.02;;
73113;SDS011;61301;51.956;5.876;2022-11-15T04:46:01;16.52;;;12.23;;
73113;SDS011;61301;51.956;5.876;2022-11-15T04:48:46;19.65;;;14.45;;
73113;SDS011;61301;51.956;5.876;2022-11-15T04:51:30;16.55;;;12.52;;
73113;SDS011;61301;51.956;5.876;2022-11-15T04:54:15;12.07;;;10.43;;
73113;SDS011;61301;51.956;5.876;2022-11-15T04:56:59;15.23;;;12.73;;
73113;SDS011;61301;51.956;5.876;2022-11-15T04:59:44;17.85;;;14.57;;
73113;SDS011;61301;51.956;5.876;2022-11-15T05:02:28;19.10;;;13.77;;
73113;SDS011;61301;51.956;5.876;2022-11-15T05:05:32;23.38;;;16.23;;
73113;SDS011;61301;51.956;5.876;2022-11-15T05:08:17;21.58;;;13.70;;
73113;SDS011;61301;51.956;5.876;2022-11-15T05:11:01;15.95;;;12.65;;
73113;SDS011;61301;51.956;5.876;2022-11-15T05:13:46;15.50;;;13.35;;
73113;SDS011;61301;51.956;5.876;2022-11-15T05:16:30;20.45;;;16.10;;
73113;SDS011;61301;51.956;5.876;2022-11-15T05:19:14;21.67;;;16.52;;
73113;SDS011;61301;51.956;5.876;2022-11-15T05:21:59;20.50;;;15.35;;
73113;SDS011;61301;51.956;5.876;2022-11-15T05:24:43;21.48;;;15.88;;
73113;SDS011;61301;51.956;5.876;2022-11-15T05:27:27;20.38;;;14.02;;
73113;SDS011;61301;51.956;5.876;2022-11-15T05:30:12;18.70;;;14.32;;
73113;SDS011;61301;51.956;5.876;2022-11-15T05:32:56;18.15;;;14.90;;
73113;SDS011;61301;51.956;5.876;2022-11-15T05:35:42;17.67;;;13.25;;
73113;SDS011;61301;51.956;5.876;2022-11-15T05:38:33;23.23;;;15.70;;
73113;SDS011;61301;51.956;5.876;2022-11-15T05:41:19;24.05;;;14.95;;
73113;SDS011;61301;51.956;5.876;2022-11-15T05:44:07;20.42;;;14.40;;
73113;SDS011;61301;51.956;5.876;2022-11-15T05:46:53;22.00;;;15.48;;
73113;SDS011;61301;51.956;5.876;2022-11-15T05:49:40;20.75;;;14.23;;
73113;SDS011;61301;51.956;5.876;2022-11-15T05:52:28;29.48;;;17.23;;
73113;SDS011;61301;51.956;5.876;2022-11-15T05:55:15;19.02;;;14.05;;
73113;SDS011;61301;51.956;5.876;2022-11-15T05:58:00;23.65;;;15.57;;
73113;SDS011;61301;51.956;5.876;2022-11-15T06:00:44;27.65;;;15.55;;
73113;SDS011;61301;51.956;5.876;2022-11-15T06:03:29;21.05;;;16.42;;
73113;SDS011;61301;51.956;5.876;2022-11-15T06:06:13;18.35;;;13.38;;
73113;SDS011;61301;51.956;5.876;2022-11-15T06:08:58;17.88;;;13.68;;
73113;SDS011;61301;51.956;5.876;2022-11-15T06:11:42;17.48;;;12.18;;
73113;SDS011;61301;51.956;5.876;2022-11-15T06:14:26;17.13;;;13.63;;
73113;SDS011;61301;51.956;5.876;2022-11-15T06:17:11;18.50;;;12.70;;
73113;SDS011;61301;51.956;5.876;2022-11-15T06:19:55;18.45;;;14.57;;
73113;SDS011;61301;51.956;5.876;2022-11-15T06:22:39;19.20;;;13.13;;
73113;SDS011;61301;51.956;5.876;2022-11-15T06:25:24;19.52;;;12.93;;
73113;SDS011;61301;51.956;5.876;2022-11-15T06:28:09;19.92;;;14.40;;
73113;SDS011;61301;51.956;5.876;2022-11-15T06:30:53;18.65;;;12.75;;
73113;SDS011;61301;51.956;5.876;2022-11-15T06:33:38;17.50;;;12.98;;
73113;SDS011;61301;51.956;5.876;2022-11-15T06:36:23;16.58;;;11.90;;
73113;SDS011;61301;51.956;5.876;2022-11-15T06:39:08;15.75;;;11.93;;
73113;SDS011;61301;51.956;5.876;2022-11-15T06:41:52;14.07;;;10.35;;
73113;SDS011;61301;51.956;5.876;2022-11-15T06:44:37;15.00;;;10.73;;
73113;SDS011;61301;51.956;5.876;2022-11-15T06:47:21;16.75;;;11.60;;
73113;SDS011;61301;51.956;5.876;2022-11-15T06:50:06;15.98;;;12.27;;
73113;SDS011;61301;51.956;5.876;2022-11-15T06:52:50;11.55;;;8.43;;
73113;SDS011;61301;51.956;5.876;2022-11-15T06:55:35;15.75;;;10.55;;
73113;SDS011;61301;51.956;5.876;2022-11-15T06:58:20;12.32;;;9.30;;
73113;SDS011;61301;51.956;5.876;2022-11-15T07:01:07;12.18;;;10.38;;
73113;SDS011;61301;51.956;5.876;2022-11-15T07:03:52;15.68;;;10.95;;
73113;SDS011;61301;51.956;5.876;2022-11-15T07:06:37;18.17;;;14.52;;
73113;SDS011;61301;51.956;5.876;2022-11-15T07:09:21;15.90;;;11.98;;
73113;SDS011;61301;51.956;5.876;2022-11-15T07:12:06;16.42;;;13.70;;
73113;SDS011;61301;51.956;5.876;2022-11-15T07:14:50;16.10;;;12.70;;
73113;SDS011;61301;51.956;5.876;2022-11-15T07:17:34;16.90;;;12.48;;
73113;SDS011;61301;51.956;5.876;2022-11-15T07:20:19;14.43;;;11.63;;
73113;SDS011;61301;51.956;5.876;2022-11-15T07:23:04;18.33;;;12.70;;
73113;SDS011;61301;51.956;5.876;2022-11-15T07:25:49;14.15;;;10.38;;
73113;SDS011;61301;51.956;5.876;2022-11-15T07:28:33;13.98;;;9.90;;
73113;SDS011;61301;51.956;5.876;2022-11-15T07:31:18;10.82;;;7.68;;
73113;SDS011;61301;51.956;5.876;2022-11-15T07:34:03;13.05;;;9.70;;
73113;SDS011;61301;51.956;5.876;2022-11-15T07:36:47;11.27;;;9.68;;
73113;SDS011;61301;51.956;5.876;2022-11-15T07:39:32;11.32;;;7.85;;
73113;SDS011;61301;51.956;5.876;2022-11-15T07:42:16;12.55;;;9.25;;
73113;SDS011;61301;51.956;5.876;2022-11-15T07:45:20;14.07;;;10.40;;
73113;SDS011;61301;51.956;5.876;2022-11-15T07:48:05;10.98;;;8.75;;
73113;SDS011;61301;51.956;5.876;2022-11-15T07:50:50;10.77;;;8.43;;
73113;SDS011;61301;51.956;5.876;2022-11-15T07:53:34;10.93;;;7.60;;
73113;SDS011;61301;51.956;5.876;2022-11-15T07:56:18;9.27;;;8.30;;
73113;SDS011;61301;51.956;5.876;2022-11-15T07:59:04;9.20;;;7.07;;
73113;SDS011;61301;51.956;5.876;2022-11-15T08:01:49;6.95;;;6.28;;
73113;SDS011;61301;51.956;5.876;2022-11-15T08:04:34;13.57;;;10.57;;
73113;SDS011;61301;51.956;5.876;2022-11-15T08:07:18;16.35;;;12.05;;
73113;SDS011;61301;51.956;5.876;2022-11-15T08:10:02;15.40;;;11.15;;
73113;SDS011;61301;51.956;5.876;2022-11-15T08:12:48;11.50;;;8.63;;
73113;SDS011;61301;51.956;5.876;2022-11-15T08:15:32;10.23;;;8.77;;
73113;SDS011;61301;51.956;5.876;2022-11-15T08:18:17;13.40;;;8.90;;
73113;SDS011;61301;51.956;5.876;2022-11-15T08:21:02;13.40;;;10.18;;
73113;SDS011;61301;51.956;5.876;2022-11-15T08:23:46;16.92;;;11.55;;
73113;SDS011;61301;51.956;5.876;2022-11-15T08:26:31;14.63;;;11.13;;
73113;SDS011;61301;51.956;5.876;2022-11-15T08:29:16;17.50;;;11.23;;
73113;SDS011;61301;51.956;5.876;2022-11-15T08:32:01;14.38;;;9.68;;
73113;SDS011;61301;51.956;5.876;2022-11-15T08:34:45;16.52;;;10.80;;
73113;SDS011;61301;51.956;5.876;2022-11-15T08:37:29;13.45;;;9.70;;
73113;SDS011;61301;51.956;5.876;2022-11-15T08:40:14;12.63;;;10.18;;
73113;SDS011;61301;51.956;5.876;2022-11-15T08:42:59;17.85;;;10.75;;
73113;SDS011;61301;51.956;5.876;2022-11-15T08:45:46;13.95;;;10.43;;
73113;SDS011;61301;51.956;5.876;2022-11-15T08:48:30;17.20;;;11.55;;
73113;SDS011;61301;51.956;5.876;2022-11-15T08:51:15;12.77;;;9.90;;
73113;SDS011;61301;51.956;5.876;2022-11-15T08:54:00;11.52;;;9.98;;
73113;SDS011;61301;51.956;5.876;2022-11-15T08:56:44;16.20;;;10.00;;
73113;SDS011;61301;51.956;5.876;2022-11-15T08:59:28;11.40;;;9.57;;
73113;SDS011;61301;51.956;5.876;2022-11-15T09:02:13;13.23;;;9.50;;
73113;SDS011;61301;51.956;5.876;2022-11-15T09:04:58;12.18;;;9.95;;
73113;SDS011;61301;51.956;5.876;2022-11-15T09:07:42;9.93;;;7.20;;
73113;SDS011;61301;51.956;5.876;2022-11-15T09:10:27;11.02;;;7.75;;
73113;SDS011;61301;51.956;5.876;2022-11-15T09:13:11;10.00;;;8.07;;
73113;SDS011;61301;51.956;5.876;2022-11-15T09:16:02;11.75;;;8.02;;
73113;SDS011;61301;51.956;5.876;2022-11-15T09:18:47;12.52;;;8.27;;
73113;SDS011;61301;51.956;5.876;2022-11-15T09:21:33;10.43;;;7.70;;
73113;SDS011;61301;51.956;5.876;2022-11-15T09:24:18;10.23;;;6.90;;
73113;SDS011;61301;51.956;5.876;2022-11-15T09:27:02;10.43;;;7.30;;
73113;SDS011;61301;51.956;5.876;2022-11-15T09:29:47;8.30;;;6.78;;
73113;SDS011;61301;51.956;5.876;2022-11-15T09:32:31;10.02;;;6.90;;
73113;SDS011;61301;51.956;5.876;2022-11-15T09:35:16;10.13;;;6.90;;
73113;SDS011;61301;51.956;5.876;2022-11-15T09:38:01;11.10;;;7.47;;
73113;SDS011;61301;51.956;5.876;2022-11-15T09:40:48;10.55;;;7.05;;
73113;SDS011;61301;51.956;5.876;2022-11-15T09:50:22;11.35;;;6.80;;
73113;SDS011;61301;51.956;5.876;2022-11-15T09:53:14;8.15;;;5.65;;
73113;SDS011;61301;51.956;5.876;2022-11-15T09:55:48;7.65;;;6.03;;
73113;SDS011;61301;51.956;5.876;2022-11-15T10:01:04;7.65;;;5.68;;
73113;SDS011;61301;51.956;5.876;2022-11-15T10:03:37;6.60;;;4.85;;
73113;SDS011;61301;51.956;5.876;2022-11-15T10:06:15;7.78;;;4.88;;
73113;SDS011;61301;51.956;5.876;2022-11-15T10:08:58;6.57;;;4.85;;
73113;SDS011;61301;51.956;5.876;2022-11-15T10:11:34;9.77;;;4.32;;
73113;SDS011;61301;51.956;5.876;2022-11-15T10:14:05;6.25;;;5.10;;
73113;SDS011;61301;51.956;5.876;2022-11-15T10:22:29;5.60;;;4.18;;
73113;SDS011;61301;51.956;5.876;2022-11-15T10:27:34;5.38;;;3.30;;
73113;SDS011;61301;51.956;5.876;2022-11-15T10:30:00;4.82;;;3.08;;
73113;SDS011;61301;51.956;5.876;2022-11-15T10:32:26;5.72;;;3.10;;
73113;SDS011;61301;51.956;5.876;2022-11-15T10:34:53;4.78;;;3.20;;
73113;SDS011;61301;51.956;5.876;2022-11-15T10:37:27;6.20;;;3.22;;
73113;SDS011;61301;51.956;5.876;2022-11-15T10:40:05;5.85;;;2.88;;
73113;SDS011;61301;51.956;5.876;2022-11-15T10:42:32;6.03;;;2.63;;
73113;SDS011;61301;51.956;5.876;2022-11-15T10:44:58;5.25;;;2.53;;
73113;SDS011;61301;51.956;5.876;2022-11-15T10:47:26;4.80;;;2.40;;
73113;SDS011;61301;51.956;5.876;2022-11-15T10:49:55;6.75;;;2.78;;
73113;SDS011;61301;51.956;5.876;2022-11-15T10:52:23;3.53;;;2.25;;
73113;SDS011;61301;51.956;5.876;2022-11-15T10:55:01;4.75;;;2.40;;
73113;SDS011;61301;51.956;5.876;2022-11-15T10:57:53;3.47;;;2.25;;
73113;SDS011;61301;51.956;5.876;2022-11-15T11:05:29;4.07;;;2.10;;
73113;SDS011;61301;51.956;5.876;2022-11-15T11:08:00;5.53;;;1.80;;
73113;SDS011;61301;51.956;5.876;2022-11-15T11:10:31;2.45;;;1.40;;
73113;SDS011;61301;51.956;5.876;2022-11-15T11:13:44;2.90;;;1.30;;
73113;SDS011;61301;51.956;5.876;2022-11-15T11:21:49;4.95;;;1.13;;
73113;SDS011;61301;51.956;5.876;2022-11-15T11:24:28;3.67;;;1.45;;
73113;SDS011;61301;51.956;5.876;2022-11-15T11:27:35;4.53;;;1.40;;
73113;SDS011;61301;51.956;5.876;2022-11-15T11:33:19;2.63;;;1.10;;
73113;SDS011;61301;51.956;5.876;2022-11-15T11:38:32;3.65;;;1.40;;
73113;SDS011;61301;51.956;5.876;2022-11-15T11:43:53;1.98;;;0.68;;
73113;SDS011;61301;51.956;5.876;2022-11-15T11:51:34;2.05;;;0.90;;
73113;SDS011;61301;51.956;5.876;2022-11-15T11:57:02;3.47;;;1.05;;
73113;SDS011;61301;51.956;5.876;2022-11-15T12:05:30;2.60;;;1.15;;
73113;SDS011;61301;51.956;5.876;2022-11-15T12:10:54;5.75;;;1.52;;
73113;SDS011;61301;51.956;5.876;2022-11-15T12:13:29;2.33;;;0.93;;
73113;SDS011;61301;51.956;5.876;2022-11-15T12:18:33;2.67;;;1.00;;
73113;SDS011;61301;51.956;5.876;2022-11-15T12:21:07;2.42;;;0.80;;
73113;SDS011;61301;51.956;5.876;2022-11-15T12:23:44;6.05;;;1.35;;
73113;SDS011;61301;51.956;5.876;2022-11-15T12:26:18;5.43;;;1.15;;
73113;SDS011;61301;51.956;5.876;2022-11-15T12:28:52;6.78;;;1.48;;
73113;SDS011;61301;51.956;5.876;2022-11-15T12:31:35;2.85;;;1.08;;
73113;SDS011;61301;51.956;5.876;2022-11-15T12:34:15;4.38;;;0.93;;
73113;SDS011;61301;51.956;5.876;2022-11-15T12:36:48;4.75;;;1.35;;
73113;SDS011;61301;51.956;5.876;2022-11-15T12:39:15;3.90;;;0.98;;
73113;SDS011;61301;51.956;5.876;2022-11-15T12:41:43;3.08;;;0.90;;
73113;SDS011;61301;51.956;5.876;2022-11-15T13:12:53;2.92;;;1.10;;
73113;SDS011;61301;51.956;5.876;2022-11-15T13:20:56;2.50;;;0.85;;
73113;SDS011;61301;51.956;5.876;2022-11-15T13:23:23;6.07;;;1.05;;
73113;SDS011;61301;51.956;5.876;2022-11-15T13:28:50;2.55;;;0.88;;
73113;SDS011;61301;51.956;5.876;2022-11-15T13:31:36;2.67;;;0.90;;
73113;SDS011;61301;51.956;5.876;2022-11-15T13:34:25;1.70;;;0.75;;
73113;SDS011;61301;51.956;5.876;2022-11-15T13:36:52;1.48;;;0.63;;
73113;SDS011;61301;51.956;5.876;2022-11-15T13:39:31;4.38;;;0.90;;
73113;SDS011;61301;51.956;5.876;2022-11-15T13:41:59;3.45;;;1.08;;
73113;SDS011;61301;51.956;5.876;2022-11-15T13:44:27;2.17;;;0.73;;
73113;SDS011;61301;51.956;5.876;2022-11-15T13:47:01;7.90;;;1.95;;
73113;SDS011;61301;51.956;5.876;2022-11-15T13:49:29;1.83;;;0.60;;
73113;SDS011;61301;51.956;5.876;2022-11-15T13:51:56;2.63;;;1.10;;
73113;SDS011;61301;51.956;5.876;2022-11-15T13:57:00;6.85;;;1.00;;
73113;SDS011;61301;51.956;5.876;2022-11-15T13:59:35;3.50;;;0.77;;
73113;SDS011;61301;51.956;5.876;2022-11-15T14:02:11;2.83;;;0.80;;
73113;SDS011;61301;51.956;5.876;2022-11-15T14:04:53;3.17;;;0.90;;
73113;SDS011;61301;51.956;5.876;2022-11-15T14:07:25;3.42;;;1.13;;
73113;SDS011;61301;51.956;5.876;2022-11-15T14:09:53;3.20;;;0.75;;
73113;SDS011;61301;51.956;5.876;2022-11-15T14:14:59;3.78;;;1.00;;
73113;SDS011;61301;51.956;5.876;2022-11-15T14:19:56;3.47;;;1.05;;
73113;SDS011;61301;51.956;5.876;2022-11-15T14:22:24;3.55;;;1.38;;
73113;SDS011;61301;51.956;5.876;2022-11-15T14:27:32;3.80;;;1.30;;
73113;SDS011;61301;51.956;5.876;2022-11-15T14:29:59;4.97;;;1.20;;
73113;SDS011;61301;51.956;5.876;2022-11-15T14:32:27;3.25;;;1.20;;
73113;SDS011;61301;51.956;5.876;2022-11-15T14:34:58;3.03;;;1.30;;
73113;SDS011;61301;51.956;5.876;2022-11-15T14:37:27;3.80;;;1.23;;
73113;SDS011;61301;51.956;5.876;2022-11-15T14:39:59;2.92;;;1.58;;
73113;SDS011;61301;51.956;5.876;2022-11-15T14:42:30;5.63;;;1.52;;
73113;SDS011;61301;51.956;5.876;2022-11-15T14:44:57;2.97;;;1.05;;
73113;SDS011;61301;51.956;5.876;2022-11-15T14:47:23;5.07;;;1.23;;
73113;SDS011;61301;51.956;5.876;2022-11-15T14:49:49;2.33;;;1.02;;
73113;SDS011;61301;51.956;5.876;2022-11-15T14:52:28;3.05;;;1.25;;
73113;SDS011;61301;51.956;5.876;2022-11-15T14:55:00;1.98;;;0.95;;
73113;SDS011;61301;51.956;5.876;2022-11-15T14:57:28;3.95;;;1.17;;
73113;SDS011;61301;51.956;5.876;2022-11-15T14:59:54;2.22;;;0.93;;
73113;SDS011;61301;51.956;5.876;2022-11-15T15:02:22;6.05;;;1.08;;
73113;SDS011;61301;51.956;5.876;2022-11-15T15:04:50;5.47;;;1.50;;
73113;SDS011;61301;51.956;5.876;2022-11-15T15:07:16;3.03;;;1.20;;
73113;SDS011;61301;51.956;5.876;2022-11-15T15:09:43;2.75;;;1.20;;
73113;SDS011;61301;51.956;5.876;2022-11-15T15:12:20;5.78;;;1.65;;
73113;SDS011;61301;51.956;5.876;2022-11-15T15:14:47;4.65;;;1.60;;
73113;SDS011;61301;51.956;5.876;2022-11-15T15:17:15;5.05;;;1.15;;
73113;SDS011;61301;51.956;5.876;2022-11-15T15:19:41;4.68;;;1.45;;
73113;SDS011;61301;51.956;5.876;2022-11-15T15:22:15;3.08;;;1.00;;
73113;SDS011;61301;51.956;5.876;2022-11-15T15:24:43;1.48;;;0.65;;
73113;SDS011;61301;51.956;5.876;2022-11-15T15:27:10;5.15;;;1.20;;
73113;SDS011;61301;51.956;5.876;2022-11-15T15:29:36;3.53;;;0.98;;
73113;SDS011;61301;51.956;5.876;2022-11-15T15:32:02;3.85;;;1.15;;
73113;SDS011;61301;51.956;5.876;2022-11-15T15:34:28;3.35;;;1.00;;
73113;SDS011;61301;51.956;5.876;2022-11-15T15:37:28;1.55;;;0.85;;
73113;SDS011;61301;51.956;5.876;2022-11-15T15:39:53;2.92;;;1.08;;
73113;SDS011;61301;51.956;5.876;2022-11-15T15:42:21;3.80;;;1.40;;
73113;SDS011;61301;51.956;5.876;2022-11-15T15:44:48;2.35;;;1.20;;
73113;SDS011;61301;51.956;5.876;2022-11-15T15:47:16;3.72;;;1.17;;
73113;SDS011;61301;51.956;5.876;2022-11-15T15:49:44;4.28;;;1.10;;
73113;SDS011;61301;51.956;5.876;2022-11-15T15:52:11;2.28;;;1.17;;
73113;SDS011;61301;51.956;5.876;2022-11-15T15:54:37;2.42;;;1.30;;
73113;SDS011;61301;51.956;5.876;2022-11-15T15:57:04;6.30;;;1.58;;
73113;SDS011;61301;51.956;5.876;2022-11-15T15:59:31;5.57;;;1.58;;
73113;SDS011;61301;51.956;5.876;2022-11-15T16:01:57;2.20;;;1.33;;
73113;SDS011;61301;51.956;5.876;2022-11-15T16:04:23;5.43;;;1.35;;
73113;SDS011;61301;51.956;5.876;2022-11-15T16:06:49;5.40;;;1.60;;
73113;SDS011;61301;51.956;5.876;2022-11-15T16:09:18;2.85;;;1.30;;
73113;SDS011;61301;51.956;5.876;2022-11-15T16:12:05;4.20;;;1.38;;
73113;SDS011;61301;51.956;5.876;2022-11-15T16:14:31;4.63;;;1.23;;
73113;SDS011;61301;51.956;5.876;2022-11-15T16:16:57;5.20;;;1.73;;
73113;SDS011;61301;51.956;5.876;2022-11-15T16:19:23;5.60;;;2.03;;
73113;SDS011;61301;51.956;5.876;2022-11-15T16:21:49;3.95;;;1.50;;
73113;SDS011;61301;51.956;5.876;2022-11-15T16:24:17;4.40;;;1.23;;
73113;SDS011;61301;51.956;5.876;2022-11-15T16:26:44;3.35;;;1.60;;
73113;SDS011;61301;51.956;5.876;2022-11-15T16:29:11;3.88;;;1.45;;
73113;SDS011;61301;51.956;5.876;2022-11-15T16:31:37;2.97;;;1.20;;
73113;SDS011;61301;51.956;5.876;2022-11-15T16:34:03;3.65;;;1.58;;
73113;SDS011;61301;51.956;5.876;2022-11-15T16:36:30;3.53;;;1.75;;
73113;SDS011;61301;51.956;5.876;2022-11-15T16:38:58;4.97;;;1.45;;
73113;SDS011;61301;51.956;5.876;2022-11-15T16:41:25;6.45;;;1.92;;
73113;SDS011;61301;51.956;5.876;2022-11-15T16:43:51;6.32;;;1.58;;
73113;SDS011;61301;51.956;5.876;2022-11-15T16:46:18;3.47;;;1.33;;
73113;SDS011;61301;51.956;5.876;2022-11-15T16:48:46;6.18;;;2.00;;
73113;SDS011;61301;51.956;5.876;2022-11-15T16:51:13;3.70;;;1.23;;
73113;SDS011;61301;51.956;5.876;2022-11-15T16:53:39;3.53;;;1.50;;
73113;SDS011;61301;51.956;5.876;2022-11-15T16:56:38;4.82;;;1.60;;
73113;SDS011;61301;51.956;5.876;2022-11-15T16:58:58;2.85;;;1.60;;
73113;SDS011;61301;51.956;5.876;2022-11-15T17:01:26;5.90;;;1.60;;
73113;SDS011;61301;51.956;5.876;2022-11-15T17:03:54;2.75;;;1.33;;
73113;SDS011;61301;51.956;5.876;2022-11-15T17:06:20;4.82;;;1.70;;
73113;SDS011;61301;51.956;5.876;2022-11-15T17:08:47;4.47;;;1.67;;
73113;SDS011;61301;51.956;5.876;2022-11-15T17:11:15;3.90;;;1.83;;
73113;SDS011;61301;51.956;5.876;2022-11-15T17:13:43;3.72;;;1.42;;
73113;SDS011;61301;51.956;5.876;2022-11-15T17:16:11;3.40;;;1.85;;
73113;SDS011;61301;51.956;5.876;2022-11-15T17:18:39;7.07;;;1.23;;
73113;SDS011;61301;51.956;5.876;2022-11-15T17:21:07;4.20;;;1.73;;
73113;SDS011;61301;51.956;5.876;2022-11-15T17:23:36;5.32;;;1.95;;
73113;SDS011;61301;51.956;5.876;2022-11-15T17:26:02;4.00;;;1.52;;
73113;SDS011;61301;51.956;5.876;2022-11-15T17:28:30;4.30;;;1.88;;
73113;SDS011;61301;51.956;5.876;2022-11-15T17:30:58;4.93;;;1.95;;
73113;SDS011;61301;51.956;5.876;2022-11-15T17:33:24;2.50;;;1.75;;
73113;SDS011;61301;51.956;5.876;2022-11-15T17:35:54;4.50;;;2.33;;
73113;SDS011;61301;51.956;5.876;2022-11-15T17:38:28;2.33;;;1.60;;
73113;SDS011;61301;51.956;5.876;2022-11-15T17:41:04;2.85;;;1.60;;
73113;SDS011;61301;51.956;5.876;2022-11-15T17:43:34;4.78;;;2.25;;
73113;SDS011;61301;51.956;5.876;2022-11-15T17:46:03;3.22;;;2.00;;
73113;SDS011;61301;51.956;5.876;2022-11-15T17:48:31;4.57;;;2.35;;
73113;SDS011;61301;51.956;5.876;2022-11-15T17:50:58;8.43;;;2.72;;
73113;SDS011;61301;51.956;5.876;2022-11-15T17:53:38;3.90;;;2.03;;
73113;SDS011;61301;51.956;5.876;2022-11-15T17:56:10;3.60;;;2.35;;
73113;SDS011;61301;51.956;5.876;2022-11-15T17:58:46;4.72;;;3.05;;
73113;SDS011;61301;51.956;5.876;2022-11-15T18:01:26;3.55;;;2.50;;
73113;SDS011;61301;51.956;5.876;2022-11-15T18:03:54;4.28;;;2.35;;
73113;SDS011;61301;51.956;5.876;2022-11-15T18:06:22;3.58;;;2.28;;
73113;SDS011;61301;51.956;5.876;2022-11-15T18:08:50;4.07;;;2.28;;
73113;SDS011;61301;51.956;5.876;2022-11-15T18:11:18;5.88;;;2.60;;